• Join FlightAware (Why Join?)
  • Login
  • US Flag 
11:32PM EDT


 

Airport Tracker/Info


-or-


 

Live Flight TrackerFlight Track Log ✈ AMF1026 ✈ 13-Aug-2013 ✈ KALB - KCVG

Flight Track Log - Related Links

Times and Time Zones

All times are in EDT time to prevent confusion due to time zone crossing. See the AMF1026 flight status page for this flight to view local times or setup timezone preferences in your user account.

Time Position Orientation Groundspeed Altitude Reporting Facility
EDT Latitude Longitude Course Direction KTS MPH feet Rate Location/Type
08:59PM 42.7694 -73.8061 335° Northwest 174 200 1,000  Level Boston Center
09:00PM 42.7964 -73.8236 335° Northwest 167 192 2,400 1,740 Climbing Boston Center
09:01PM 42.7769 -73.8800 245° Southwest 174 200 4,000 1,560 Climbing Boston Center
09:02PM 42.7636 -73.9306 250° West 190 219 5,400 1,440 Climbing Boston Center
09:03PM 42.7483 -73.9922 251° West 190 219 6,700 1,260 Climbing Boston Center
09:04PM 42.7517 -74.0461 275° West 183 211 7,900 1,440 Climbing Boston Center
09:05PM 42.7608 -74.1311 278° West 178 205 9,700 1,560 Climbing Boston Center
09:06PM 42.7642 -74.1878 275° West 178 205 11,100 1,260 Climbing Boston Center
09:07PM 42.7631 -74.2528 269° West 172 198 12,300 1,140 Climbing Boston Center
09:08PM 42.7581 -74.3092 263° West 172 198 13,400 1,140 Climbing Boston Center
09:09PM 42.7444 -74.3739 254° West 172 198 14,600 1,020 Climbing Boston Center
09:10PM 42.7331 -74.4300 255° West 162 186 15,500 660 Climbing Boston Center
09:11PM 42.7111 -74.4944 245° Southwest 172 198 16,000 240 Climbing Boston Center
09:12PM 42.6872 -74.5558 242° Southwest 191 220 16,000  Level Boston Center
09:13PM 42.6628 -74.6339 247° West 206 237 16,000  Level Boston Center
09:14PM 42.6406 -74.7008 246° West 214 246 16,000  Level Boston Center
09:15PM 42.6117 -74.7817 244° Southwest 214 246 16,000  Level Boston Center
09:16PM 42.5894 -74.8486 246° West 214 246 16,000  Level Boston Center
09:17PM 42.5650 -74.9181 244° Southwest 214 246 16,000  Level Boston Center
09:18PM 42.5428 -74.9906 247° West 214 246 16,000  Level Boston Center
09:19PM 42.5200 -75.0656 248° West 214 246 16,000  Level Boston Center
09:20PM 42.5017 -75.1381 251° West 214 246 16,000  Level Boston Center
09:21PM 42.4811 -75.2133 250° West 214 246 16,000  Level Boston Center
09:22PM 42.4586 -75.2853 247° West 214 246 16,000  Level Boston Center
09:24PM 42.3889 -75.4564 241° Southwest 214 246 16,000  Level New York Center
09:25PM 42.3631 -75.5247 243° Southwest 214 246 16,000  Level New York Center
09:26PM 42.3397 -75.5903 244° Southwest 209 241 16,000  Level New York Center
09:27PM 42.3139 -75.6611 244° Southwest 209 241 16,000  Level New York Center
09:28PM 42.2861 -75.7264 240° Southwest 214 246 16,000  Level New York Center
09:29PM 42.2667 -75.7978 250° West 214 246 16,000  Level New York Center
09:30PM 42.2469 -75.8692 250° West 214 246 16,000  Level New York Center
09:31PM 42.2294 -75.9378 251° West 209 241 16,000  Level New York Center
09:32PM 42.2056 -76.0086 246° West 209 241 16,000  Level New York Center
09:33PM 42.1797 -76.0739 242° Southwest 209 241 16,000  Level New York Center
09:34PM 42.1519 -76.1386 240° Southwest 209 241 16,000  Level New York Center
09:35PM 42.1278 -76.2067 244° Southwest 209 241 16,000  Level New York Center
09:36PM 42.1061 -76.2747 247° West 209 241 16,000  Level New York Center
09:37PM 42.0842 -76.3400 246° West 209 241 16,000  Level New York Center
09:38PM 42.0644 -76.4081 249° West 209 241 16,000  Level New York Center
09:39PM 42.0467 -76.4764 251° West 209 241 16,000  Level New York Center
09:40PM 42.0306 -76.5475 253° West 204 235 16,000  Level New York Center
09:41PM 42.0106 -76.6156 248° West 204 235 16,000  Level New York Center
09:42PM 41.9906 -76.6836 248° West 204 235 16,000  Level New York Center
09:43PM 41.9664 -76.7514 244° Southwest 204 235 16,000  Level New York Center
09:44PM 41.9442 -76.8189 246° West 204 235 16,000  Level New York Center
09:45PM 41.9181 -76.8861 242° Southwest 209 241 16,000  Level New York Center
09:46PM 41.9042 -76.9336 249° West 207 238 16,000 -120 Level Cleveland Center
09:47PM 41.8811 -77.0019 246° West 212 244 15,900 -60 Descending Cleveland Center
09:48PM 41.8522 -77.0706 241° Southwest 212 244 15,900  Level Cleveland Center
09:49PM 41.8292 -77.1358 245° Southwest 207 238 15,900  Level Cleveland Center
09:50PM 41.7956 -77.2044 237° Southwest 207 238 15,900  Level Cleveland Center
09:51PM 41.7706 -77.2700 243° Southwest 207 238 15,900  Level Cleveland Center
09:52PM 41.7431 -77.3353 241° Southwest 207 238 15,900  Level Cleveland Center
09:53PM 41.7158 -77.4006 241° Southwest 207 238 15,900  Level Cleveland Center
09:54PM 41.6906 -77.4658 243° Southwest 207 238 15,900  Level Cleveland Center
09:55PM 41.6611 -77.5339 240° Southwest 207 238 16,000  Climbing Cleveland Center
09:56PM 41.6378 -77.6019 245° Southwest 207 238 16,000  Level Cleveland Center
09:57PM 41.6167 -77.6694 247° West 207 238 16,000  Level Cleveland Center
09:58PM 41.5933 -77.7372 245° Southwest 207 238 16,000  Level Cleveland Center
09:59PM 41.5719 -77.8075 248° West 202 232 16,000  Level Cleveland Center
10:00PM 41.5508 -77.8750 247° West 202 232 16,000  Level Cleveland Center
10:01PM 41.5231 -77.9456 242° Southwest 202 232 16,000  Level Cleveland Center
10:02PM 41.4933 -78.0106 239° Southwest 202 232 16,000  Level Cleveland Center
10:03PM 41.4700 -78.0778 245° Southwest 202 232 16,000  Level Cleveland Center
10:04PM 41.4419 -78.1428 240° Southwest 202 232 16,000  Level Cleveland Center
10:05PM 41.4142 -78.2075 240° Southwest 207 238 16,000  Level Cleveland Center
10:06PM 41.3864 -78.2722 240° Southwest 207 238 16,000  Level Cleveland Center
10:07PM 41.3625 -78.3339 243° Southwest 207 238 16,000  Level Cleveland Center
10:08PM 41.3367 -78.3983 242° Southwest 207 238 16,000  Level Cleveland Center
10:09PM 41.3089 -78.4631 240° Southwest 207 238 16,000  Level Cleveland Center
10:10PM 41.2914 -78.5325 251° West 201 231 16,000  Level Cleveland Center
10:11PM 41.2781 -78.6047 256° West 201 231 16,000  Level Cleveland Center
10:12PM 41.2625 -78.6772 254° West 201 231 16,000  Level Cleveland Center
10:13PM 41.2469 -78.7467 253° West 201 231 16,000  Level Cleveland Center
10:14PM 41.2292 -78.8161 251° West 206 237 16,000  Level Cleveland Center
10:15PM 41.2117 -78.8856 252° West 206 237 16,000  Level Cleveland Center
10:16PM 41.1939 -78.9550 251° West 206 237 16,000  Level Cleveland Center
10:17PM 41.1761 -79.0244 251° West 206 237 16,000  Level Cleveland Center
10:18PM 41.1561 -79.0994 251° West 206 237 16,000  Level Cleveland Center
10:19PM 41.1383 -79.1714 252° West 206 237 16,000  Level Cleveland Center
10:20PM 41.1244 -79.2269 252° West 206 237 16,000  Level Cleveland Center
10:21PM 41.1044 -79.3044 251° West 206 237 16,100  Climbing Cleveland Center
10:22PM 41.0886 -79.3764 254° West 206 237 16,100  Level Cleveland Center
10:23PM 41.0683 -79.4428 248° West 206 237 16,100  Level Cleveland Center
10:24PM 41.0481 -79.5122 249° West 206 237 16,100  Level Cleveland Center
10:25PM 41.0258 -79.5814 247° West 206 237 16,100  Level Cleveland Center
10:26PM 41.0036 -79.6503 247° West 211 243 16,100  Level Cleveland Center
10:27PM 40.9811 -79.7194 247° West 211 243 16,100  Level Cleveland Center
10:28PM 40.9586 -79.7886 247° West 211 243 16,100  Level Cleveland Center
10:29PM 40.9361 -79.8575 247° West 211 243 16,100  Level Cleveland Center
10:30PM 40.9117 -79.9264 245° Southwest 211 243 16,100  Level Cleveland Center
10:31PM 40.8911 -79.9925 248° West 211 243 16,100  Level Cleveland Center
10:32PM 40.8686 -80.0614 247° West 211 243 16,100  Level Cleveland Center
10:33PM 40.8439 -80.1383 247° West 211 243 16,100  Level Cleveland Center
10:34PM 40.8253 -80.2100 251° West 211 243 16,100  Level Cleveland Center
10:35PM 40.7983 -80.2758 242° Southwest 211 243 16,100  Level Cleveland Center
10:36PM 40.7672 -80.3308 233° Southwest 211 243 16,100  Level Cleveland Center
10:37PM 40.7319 -80.3942 234° Southwest 216 249 16,100  Level Cleveland Center
10:38PM 40.6986 -80.4572 235° Southwest 216 249 16,100  Level Cleveland Center
10:39PM 40.6656 -80.5200 235° Southwest 216 249 16,100  Level Cleveland Center
10:40PM 40.6322 -80.5831 235° Southwest 216 249 16,100  Level Cleveland Center
10:41PM 40.5967 -80.6433 232° Southwest 205 236 16,100 -60 Level Cleveland Center
10:42PM 40.5633 -80.7089 236° Southwest 205 236 16,000 -60 Descending Cleveland Center
10:43PM 40.5278 -80.7717 233° Southwest 210 242 16,000  Level Cleveland Center
10:44PM 40.4983 -80.8369 239° Southwest 210 242 16,000  Level Cleveland Center
10:45PM 40.4650 -80.8997 235° Southwest 215 247 16,000  Level Cleveland Center
10:46PM 40.4333 -80.9650 238° Southwest 215 247 16,000  Level Cleveland Center
10:47PM 40.4019 -81.0303 238° Southwest 215 247 16,000  Level Cleveland Center
10:48PM 40.3683 -81.0928 235° Southwest 215 247 16,000  Level Cleveland Center
10:49PM 40.3461 -81.1408 239° Southwest 210 242 16,000  Level Indianapolis Center
10:50PM 40.3128 -81.2097 238° Southwest 216 249 16,000  Level Indianapolis Center
10:51PM 40.2794 -81.2711 235° Southwest 212 244 16,000  Level Indianapolis Center
10:52PM 40.2472 -81.3336 236° Southwest 207 238 16,000  Level Indianapolis Center
10:53PM 40.2125 -81.3972 234° Southwest 210 242 16,000  Level Indianapolis Center
10:54PM 40.1783 -81.4625 236° Southwest 214 246 16,000  Level Indianapolis Center
10:55PM 40.1442 -81.5272 235° Southwest 214 246 16,000  Level Indianapolis Center
10:56PM 40.1119 -81.5933 238° Southwest 214 246 16,000  Level Indianapolis Center
10:57PM 40.0806 -81.6586 238° Southwest 212 244 16,000  Level Indianapolis Center
10:58PM 40.0489 -81.7222 237° Southwest 209 241 16,000  Level Indianapolis Center
10:59PM 40.0106 -81.8011 238° Southwest 215 247 16,000  Level Indianapolis Center
11:00PM 39.9797 -81.8711 240° Southwest 218 251 16,000  Level Indianapolis Center
11:01PM 39.9542 -81.9350 242° Southwest 214 246 16,000  Level Indianapolis Center
11:02PM 39.9294 -82.0028 245° Southwest 210 242 16,000  Level Indianapolis Center
11:03PM 39.9036 -82.0750 245° Southwest 215 247 16,000  Level Indianapolis Center
11:04PM 39.8786 -82.1422 244° Southwest 212 244 16,000  Level Indianapolis Center
11:05PM 39.8511 -82.2136 243° Southwest 217 250 16,000  Level Indianapolis Center
11:06PM 39.8256 -82.2842 245° Southwest 217 250 16,000  Level Indianapolis Center
11:07PM 39.7997 -82.3531 244° Southwest 213 245 16,000  Level Indianapolis Center
11:08PM 39.7692 -82.4364 245° Southwest 212 244 16,000  Level Indianapolis Center
11:09PM 39.7431 -82.5042 243° Southwest 211 243 16,000  Level Indianapolis Center
11:10PM 39.7169 -82.5767 245° Southwest 217 250 16,000  Level Indianapolis Center
11:11PM 39.6914 -82.6475 245° Southwest 217 250 16,000  Level Indianapolis Center
11:12PM 39.6667 -82.7172 245° Southwest 214 246 16,000  Level Indianapolis Center
11:13PM 39.6414 -82.7881 245° Southwest 216 249 16,000  Level Indianapolis Center
11:14PM 39.6172 -82.8561 245° Southwest 210 242 16,000  Level Indianapolis Center
11:15PM 39.5911 -82.9250 244° Southwest 212 244 16,000  Level Indianapolis Center
11:16PM 39.5639 -82.9950 243° Southwest 215 247 16,000  Level Indianapolis Center
11:17PM 39.5369 -83.0642 243° Southwest 216 249 16,000  Level Indianapolis Center
11:18PM 39.5097 -83.1336 243° Southwest 217 250 16,000  Level Indianapolis Center
11:19PM 39.4828 -83.2039 244° Southwest 218 251 16,000  Level Indianapolis Center
11:20PM 39.4500 -83.2875 243° Southwest 218 251 16,000 -180 Level Indianapolis Center
11:21PM 39.4228 -83.3586 244° Southwest 219 252 15,700 -660 Descending Indianapolis Center
11:22PM 39.3944 -83.4339 244° Southwest 232 267 14,700 -1,020 Descending Indianapolis Center
11:23PM 39.3658 -83.5169 246° West 247 284 13,700 -960 Descending Indianapolis Center
11:24PM 39.3417 -83.5972 249° West 243 280 12,800 -960 Descending Indianapolis Center
11:25PM 39.3156 -83.6794 248° West 245 282 11,800 -840 Descending Indianapolis Center
11:26PM 39.2889 -83.7614 247° West 247 284 11,100 -420 Descending Indianapolis Center
11:27PM 39.2622 -83.8411 247° West 244 281 11,000 -60 Descending Indianapolis Center
11:28PM 39.2358 -83.9264 248° West 244 281 11,000 -180 Level Indianapolis Center
11:29PM 39.2103 -84.0056 247° West 241 277 10,700 -720 Descending Indianapolis Center
11:30PM 39.1928 -84.0892 255° West 244 281 9,600 -1,260 Descending Indianapolis Center
11:31PM 39.1758 -84.1700 255° West 247 284 8,200 -1,320 Descending Indianapolis Center
11:32PM 39.1472 -84.2656 249° West 243 280 7,000 -600 Descending Indianapolis Center
11:33PM 39.1242 -84.3369 247° West 232 267 7,000  Level Indianapolis Center
11:34PM 39.1017 -84.4103 248° West 225 259 7,000  Level Indianapolis Center
11:35PM 39.0547 -84.4600 219° Southwest 226 260 7,000  Level Indianapolis Center
11:36PM 38.9961 -84.4956 205° Southwest 226 260 7,000 -780 Level Indianapolis Center
11:38PM 38.9000 -84.5500 204° Southwest 187 215 5,000 -1,440 Descending Cincinnati TRACON
11:39PM 38.9000 -84.6000 270° West 182 209 3,300 -1,080 Descending Cincinnati TRACON
11:40PM 38.9167 -84.6500 293° West 154 177 2,900 -600 Descending Cincinnati TRACON
11:41PM 38.9500 -84.6667 339° North 129 148 2,200 -600 Descending Cincinnati TRACON
11:42PM 38.9833 -84.6667 360° North 100 115 1,800 -540 Descending Cincinnati TRACON
11:43PM 39.0167 -84.6667 360° North 114 131 1,200 -600 Descending Cincinnati TRACON